Time;durP1;ratioP1;P1;durP2;ratioP2;P2;SDS_P1;SDS_P2;PMS_P1;PMS_P2;Temp;Humidity;BMP_temperature;BMP_pressure;BME280_temperature;BME280_humidity;BME280_pressure;Samples;Min_cycle;Max_cycle;Signal;HPM_P1;HPM_P2
2023/03/06 00:00:20;;;;;;;15.88;7.00;;;;;;;;;;5019820;28;20045;-78
2023/03/06 00:02:46;;;;;;;15.20;7.05;;;;;;;;;;5023952;28;20030;-77
2023/03/06 00:05:13;;;;;;;12.98;6.90;;;;;;;;;;5014727;28;20036;-77
2023/03/06 00:07:39;;;;;;;14.98;7.05;;;;;;;;;;5023168;28;20044;-77
2023/03/06 00:10:05;;;;;;;12.50;6.63;;;;;;;;;;5016142;28;20081;-77
2023/03/06 00:12:31;;;;;;;11.43;5.65;;;;;;;;;;5019557;28;20459;-77
2023/03/06 00:14:57;;;;;;;8.93;5.72;;;;;;;;;;5017223;28;20041;-77
2023/03/06 00:17:23;;;;;;;14.05;6.65;;;;;;;;;;5016990;28;20050;-77
2023/03/06 00:19:49;;;;;;;17.05;6.57;;;;;;;;;;5015626;28;20047;-77
2023/03/06 00:22:16;;;;;;;10.80;5.65;;;;;;;;;;5023141;28;20026;-77
2023/03/06 00:24:42;;;;;;;9.77;5.88;;;;;;;;;;5020582;28;20504;-77
2023/03/06 00:27:08;;;;;;;13.75;7.43;;;;;;;;;;5017914;28;20026;-77
2023/03/06 00:29:34;;;;;;;13.15;6.57;;;;;;;;;;5017421;28;20053;-77
2023/03/06 00:32:00;;;;;;;15.48;6.53;;;;;;;;;;5014302;28;20625;-77
2023/03/06 00:34:26;;;;;;;13.15;6.43;;;;;;;;;;5015363;28;20044;-77
2023/03/06 00:36:52;;;;;;;12.30;5.72;;;;;;;;;;5018667;28;20445;-78
2023/03/06 00:39:19;;;;;;;15.10;7.53;;;;;;;;;;5018788;28;20042;-77
2023/03/06 00:41:45;;;;;;;14.70;6.30;;;;;;;;;;5022768;28;20437;-77
2023/03/06 00:44:11;;;;;;;16.42;6.70;;;;;;;;;;5018378;28;20029;-77
2023/03/06 00:46:37;;;;;;;11.75;6.88;;;;;;;;;;5019139;28;20100;-77
2023/03/06 00:49:03;;;;;;;10.52;6.30;;;;;;;;;;5017658;28;20046;-77
2023/03/06 00:51:29;;;;;;;15.82;8.07;;;;;;;;;;5015849;28;20033;-77
2023/03/06 00:53:55;;;;;;;16.00;8.05;;;;;;;;;;5019107;28;20045;-77
2023/03/06 00:56:21;;;;;;;15.05;7.55;;;;;;;;;;5023394;28;20029;-77
2023/03/06 00:58:47;;;;;;;11.00;5.93;;;;;;;;;;5014124;28;20034;-77
2023/03/06 01:01:14;;;;;;;16.73;7.20;;;;;;;;;;5015601;28;20045;-78
2023/03/06 01:03:40;;;;;;;11.75;6.55;;;;;;;;;;5018038;28;20037;-77
2023/03/06 01:06:06;;;;;;;14.73;7.28;;;;;;;;;;5021880;28;20026;-77
2023/03/06 01:08:32;;;;;;;9.55;6.43;;;;;;;;;;5015132;28;20483;-77
2023/03/06 01:10:58;;;;;;;12.52;6.63;;;;;;;;;;5016398;28;20111;-77
2023/03/06 01:13:24;;;;;;;13.02;6.85;;;;;;;;;;5017585;28;20102;-77
2023/03/06 01:15:50;;;;;;;14.35;6.18;;;;;;;;;;5018488;28;20041;-77
2023/03/06 01:18:16;;;;;;;14.68;6.95;;;;;;;;;;5021443;28;20026;-77
2023/03/06 01:20:42;;;;;;;13.68;6.65;;;;;;;;;;5012372;28;20044;-77
2023/03/06 01:23:08;;;;;;;16.83;6.82;;;;;;;;;;5015634;28;20022;-77
2023/03/06 01:25:34;;;;;;;13.75;6.78;;;;;;;;;;5019551;28;20030;-77
2023/03/06 01:28:00;;;;;;;16.60;8.32;;;;;;;;;;5016056;28;20053;-77
2023/03/06 01:30:25;;;;;;;12.43;6.82;;;;;;;;;;5019257;28;20030;-78
2023/03/06 01:32:52;;;;;;;15.25;7.13;;;;;;;;;;5019888;28;20108;-78
2023/03/06 01:35:18;;;;;;;11.60;6.57;;;;;;;;;;5020899;28;20053;-77
2023/03/06 01:37:44;;;;;;;13.15;7.63;;;;;;;;;;5013648;28;20068;-77
2023/03/06 01:40:10;;;;;;;13.88;6.88;;;;;;;;;;5016050;28;20038;-77
2023/03/06 01:42:36;;;;;;;12.52;7.07;;;;;;;;;;5017934;28;20076;-77
2023/03/06 01:45:06;;;;;;;15.18;7.32;;;;;;;;;;5018741;28;20037;-78
2023/03/06 01:47:32;;;;;;;14.90;7.55;;;;;;;;;;5018091;28;20030;-77
2023/03/06 01:49:59;;;;;;;16.45;7.35;;;;;;;;;;5017454;28;20066;-78
2023/03/06 01:52:29;;;;;;;10.98;6.38;;;;;;;;;;5018506;28;20030;-78
2023/03/06 01:54:58;;;;;;;13.85;6.47;;;;;;;;;;5019904;28;20025;-77
2023/03/06 01:57:25;;;;;;;17.05;7.45;;;;;;;;;;5019247;28;20038;-77
2023/03/06 01:59:55;;;;;;;10.63;7.23;;;;;;;;;;5018057;28;20154;-77
2023/03/06 02:02:21;;;;;;;13.70;6.28;;;;;;;;;;5021773;28;20042;-81
2023/03/06 02:04:47;;;;;;;14.27;7.10;;;;;;;;;;5017548;28;20085;-81
2023/03/06 02:07:15;;;;;;;11.52;6.05;;;;;;;;;;5019208;28;20026;-81
2023/03/06 02:09:41;;;;;;;11.88;6.90;;;;;;;;;;5015992;28;20084;-80
2023/03/06 02:12:12;;;;;;;15.32;7.45;;;;;;;;;;5020493;28;20509;-80
2023/03/06 02:14:39;;;;;;;10.88;6.47;;;;;;;;;;5016251;28;20458;-81
2023/03/06 02:17:05;;;;;;;14.75;7.35;;;;;;;;;;5018498;28;20053;-81
2023/03/06 02:19:41;;;;;;;16.83;7.05;;;;;;;;;;5016631;28;20010;-81
2023/03/06 02:22:07;;;;;;;16.20;7.38;;;;;;;;;;5011972;28;20029;-81
2023/03/06 02:24:40;;;;;;;15.90;6.82;;;;;;;;;;5015181;28;20034;-81
2023/03/06 02:27:07;;;;;;;12.70;6.47;;;;;;;;;;5014365;28;20037;-81
2023/03/06 02:29:33;;;;;;;14.18;7.20;;;;;;;;;;5011133;28;20078;-81
2023/03/06 02:31:59;;;;;;;12.65;7.63;;;;;;;;;;5011504;28;20125;-81
2023/03/06 02:34:25;;;;;;;9.63;5.57;;;;;;;;;;5015492;28;20022;-81
2023/03/06 02:36:53;;;;;;;11.77;6.68;;;;;;;;;;5015040;28;20026;-81
2023/03/06 02:39:21;;;;;;;13.83;7.30;;;;;;;;;;5019135;28;20085;-81
2023/03/06 02:41:47;;;;;;;15.07;6.55;;;;;;;;;;5014578;28;20309;-81
2023/03/06 02:44:13;;;;;;;12.18;6.47;;;;;;;;;;5016107;28;20037;-81
2023/03/06 02:46:39;;;;;;;23.45;10.85;;;;;;;;;;5014859;28;20490;-81
2023/03/06 02:49:05;;;;;;;19.58;8.82;;;;;;;;;;5017370;28;20109;-81
2023/03/06 02:51:31;;;;;;;19.67;8.30;;;;;;;;;;5015008;28;20042;-80
2023/03/06 02:53:57;;;;;;;15.80;8.80;;;;;;;;;;5014137;28;20038;-81
2023/03/06 02:56:23;;;;;;;16.50;7.93;;;;;;;;;;5014270;28;20496;-81
2023/03/06 02:58:49;;;;;;;20.10;8.82;;;;;;;;;;5017115;28;20080;-81
2023/03/06 03:01:15;;;;;;;20.17;8.90;;;;;;;;;;5013508;28;20097;-81
2023/03/06 03:03:41;;;;;;;15.40;7.43;;;;;;;;;;5014484;28;20398;-80
2023/03/06 03:06:07;;;;;;;21.27;8.65;;;;;;;;;;5017368;28;20045;-81
2023/03/06 03:08:33;;;;;;;18.90;8.98;;;;;;;;;;5012316;28;20030;-81
2023/03/06 03:11:00;;;;;;;21.38;7.22;;;;;;;;;;5021034;28;20037;-81
2023/03/06 03:13:26;;;;;;;18.45;7.55;;;;;;;;;;5016042;28;20022;-81
2023/03/06 03:15:58;;;;;;;18.55;7.80;;;;;;;;;;5016970;28;20060;-80
2023/03/06 03:18:24;;;;;;;15.60;7.43;;;;;;;;;;5018937;28;20028;-80
2023/03/06 03:20:50;;;;;;;16.77;6.95;;;;;;;;;;5015235;28;20042;-81
2023/03/06 03:23:16;;;;;;;12.00;7.15;;;;;;;;;;5015105;28;20053;-81
2023/03/06 03:25:42;;;;;;;14.35;7.13;;;;;;;;;;5014823;28;20028;-81
2023/03/06 03:28:08;;;;;;;10.52;6.80;;;;;;;;;;5015417;28;20073;-81
2023/03/06 03:30:34;;;;;;;11.98;6.28;;;;;;;;;;5014804;28;20117;-81
2023/03/06 03:33:00;;;;;;;18.15;8.15;;;;;;;;;;5016768;28;20081;-82
2023/03/06 03:35:26;;;;;;;13.57;6.93;;;;;;;;;;5019060;28;20034;-81
2023/03/06 03:37:54;;;;;;;13.45;6.68;;;;;;;;;;5019539;28;20560;-81
2023/03/06 03:40:20;;;;;;;17.42;7.28;;;;;;;;;;5012989;28;20132;-81
2023/03/06 03:42:45;;;;;;;12.15;7.13;;;;;;;;;;5015671;28;20115;-81
2023/03/06 03:45:12;;;;;;;15.13;6.68;;;;;;;;;;5015175;28;20105;-80
2023/03/06 03:47:39;;;;;;;14.48;7.25;;;;;;;;;;5020625;28;20438;-81
2023/03/06 03:50:05;;;;;;;15.05;8.57;;;;;;;;;;5020090;28;20110;-81
2023/03/06 03:52:31;;;;;;;15.05;7.30;;;;;;;;;;5018907;28;20072;-81
2023/03/06 03:54:57;;;;;;;18.17;8.43;;;;;;;;;;5021699;28;20022;-80
2023/03/06 03:57:23;;;;;;;17.23;6.72;;;;;;;;;;5015597;28;20035;-81
2023/03/06 03:59:49;;;;;;;15.13;7.07;;;;;;;;;;5020911;28;20030;-80
2023/03/06 04:02:15;;;;;;;16.75;7.55;;;;;;;;;;5022998;28;20065;-81
2023/03/06 04:04:41;;;;;;;15.88;7.32;;;;;;;;;;5020142;28;20030;-81
2023/03/06 04:07:08;;;;;;;15.25;7.30;;;;;;;;;;5019539;28;20026;-81
2023/03/06 04:09:34;;;;;;;12.18;7.68;;;;;;;;;;5016723;28;20041;-81
2023/03/06 04:12:00;;;;;;;12.07;6.90;;;;;;;;;;5017850;28;20026;-82
2023/03/06 04:14:26;;;;;;;17.50;7.05;;;;;;;;;;5022334;28;20037;-81
2023/03/06 04:16:52;;;;;;;15.52;7.78;;;;;;;;;;5019834;28;20022;-81
2023/03/06 04:19:18;;;;;;;18.13;7.90;;;;;;;;;;5019369;28;20037;-81
2023/03/06 04:21:44;;;;;;;16.77;8.35;;;;;;;;;;5019976;28;20022;-81
2023/03/06 04:24:10;;;;;;;17.38;9.00;;;;;;;;;;5020159;28;20045;-80
2023/03/06 04:26:36;;;;;;;14.63;6.28;;;;;;;;;;5019735;28;20022;-80
2023/03/06 04:29:02;;;;;;;14.02;7.35;;;;;;;;;;5016557;28;20040;-81
2023/03/06 04:31:28;;;;;;;13.75;7.28;;;;;;;;;;5023260;28;20747;-81
2023/03/06 04:33:54;;;;;;;14.43;7.25;;;;;;;;;;5015156;28;20035;-81
2023/03/06 04:36:25;;;;;;;12.48;7.05;;;;;;;;;;5017935;28;20066;-81
2023/03/06 04:38:51;;;;;;;13.90;7.72;;;;;;;;;;5015112;28;20426;-80
2023/03/06 04:41:17;;;;;;;20.58;7.80;;;;;;;;;;5019699;28;20102;-80
2023/03/06 04:43:43;;;;;;;13.35;6.88;;;;;;;;;;5014307;28;21569;-81
2023/03/06 04:46:10;;;;;;;14.88;8.77;;;;;;;;;;5012717;28;20021;-81
2023/03/06 04:48:36;;;;;;;14.80;7.88;;;;;;;;;;5019607;28;20122;-81
2023/03/06 04:51:02;;;;;;;13.98;7.50;;;;;;;;;;5020444;28;20054;-81
2023/03/06 04:53:28;;;;;;;16.67;8.68;;;;;;;;;;5016979;28;20021;-82
2023/03/06 04:55:54;;;;;;;18.35;7.25;;;;;;;;;;5018903;28;20038;-80
2023/03/06 04:58:21;;;;;;;18.30;8.48;;;;;;;;;;5017174;28;20048;-80
2023/03/06 05:00:47;;;;;;;14.38;7.55;;;;;;;;;;5018878;28;22046;-81
2023/03/06 05:03:13;;;;;;;21.48;9.23;;;;;;;;;;5020978;28;20109;-81
2023/03/06 05:05:39;;;;;;;16.10;8.15;;;;;;;;;;5015677;28;20030;-81
2023/03/06 05:08:06;;;;;;;15.75;8.27;;;;;;;;;;5017665;28;20042;-82
2023/03/06 05:10:32;;;;;;;15.35;7.13;;;;;;;;;;5010955;28;20027;-81
2023/03/06 05:12:58;;;;;;;13.23;7.03;;;;;;;;;;5014567;28;20658;-81
2023/03/06 05:15:23;;;;;;;20.33;8.98;;;;;;;;;;5014628;28;20061;-81
2023/03/06 05:17:50;;;;;;;14.20;7.95;;;;;;;;;;5019289;28;20030;-81
2023/03/06 05:20:16;;;;;;;12.60;6.35;;;;;;;;;;5017657;28;20100;-81
2023/03/06 05:22:43;;;;;;;18.25;8.98;;;;;;;;;;5016723;28;20052;-81
2023/03/06 05:25:09;;;;;;;19.08;8.65;;;;;;;;;;5020799;28;20065;-81
2023/03/06 05:27:36;;;;;;;13.93;8.57;;;;;;;;;;5016252;28;20033;-82
2023/03/06 05:30:02;;;;;;;19.02;8.07;;;;;;;;;;5019871;28;20398;-81
2023/03/06 05:32:28;;;;;;;19.55;8.73;;;;;;;;;;5019337;28;20029;-82
2023/03/06 05:34:54;;;;;;;14.48;7.65;;;;;;;;;;5016041;28;20048;-81
2023/03/06 05:37:21;;;;;;;13.82;7.15;;;;;;;;;;5009395;28;20050;-81
2023/03/06 05:39:48;;;;;;;16.98;7.57;;;;;;;;;;5019992;28;20137;-81
2023/03/06 05:42:13;;;;;;;14.30;7.78;;;;;;;;;;5017654;28;20037;-81
2023/03/06 05:44:40;;;;;;;15.65;9.57;;;;;;;;;;5018119;28;20031;-81
2023/03/06 05:47:07;;;;;;;16.10;8.82;;;;;;;;;;5017530;28;20077;-81
2023/03/06 05:49:34;;;;;;;16.67;8.15;;;;;;;;;;5017764;28;20135;-81
2023/03/06 05:52:02;;;;;;;13.77;6.50;;;;;;;;;;5015853;28;20038;-81
2023/03/06 05:54:28;;;;;;;;;;;;;;;;;;5018884;28;20030;-81
2023/03/06 05:56:56;;;;;;;15.73;7.68;;;;;;;;;;5017563;28;19923;-81
2023/03/06 05:59:22;;;;;;;12.73;5.88;;;;;;;;;;5018865;28;20097;-81
2023/03/06 06:01:48;;;;;;;15.48;7.65;;;;;;;;;;5016572;28;20037;-81
2023/03/06 06:04:14;;;;;;;15.18;7.53;;;;;;;;;;5020408;28;20514;-81
2023/03/06 06:06:40;;;;;;;20.20;8.75;;;;;;;;;;5017635;28;20087;-81
2023/03/06 06:09:06;;;;;;;13.38;7.28;;;;;;;;;;5016436;28;20033;-81
2023/03/06 06:11:32;;;;;;;15.27;7.47;;;;;;;;;;5014414;28;20030;-81
2023/03/06 06:13:58;;;;;;;15.57;7.90;;;;;;;;;;5016749;28;20087;-81
2023/03/06 06:16:24;;;;;;;17.88;7.72;;;;;;;;;;5014735;28;20105;-81
2023/03/06 06:18:50;;;;;;;20.30;8.30;;;;;;;;;;5020424;28;20030;-81
2023/03/06 06:21:16;;;;;;;17.08;8.60;;;;;;;;;;5019222;28;20033;-81
2023/03/06 06:23:43;;;;;;;18.90;8.40;;;;;;;;;;5022079;28;20038;-82
2023/03/06 06:26:09;;;;;;;14.02;7.80;;;;;;;;;;5017192;28;20009;-81
2023/03/06 06:28:35;;;;;;;16.10;7.80;;;;;;;;;;5013856;28;20068;-81
2023/03/06 06:31:07;;;;;;;18.70;8.55;;;;;;;;;;5016735;28;20030;-81
2023/03/06 06:33:33;;;;;;;22.10;8.75;;;;;;;;;;5013913;28;20060;-82
2023/03/06 06:35:59;;;;;;;15.45;8.32;;;;;;;;;;5009938;28;20030;-82
2023/03/06 06:38:25;;;;;;;15.88;9.13;;;;;;;;;;5013762;28;20080;-81
2023/03/06 06:40:51;;;;;;;20.38;9.48;;;;;;;;;;5016357;28;20034;-82
2023/03/06 06:43:17;;;;;;;19.33;8.43;;;;;;;;;;5018170;28;20049;-81
2023/03/06 06:45:43;;;;;;;14.38;6.70;;;;;;;;;;5016565;28;20129;-81
2023/03/06 06:48:09;;;;;;;16.67;7.63;;;;;;;;;;5022149;28;20026;-82
2023/03/06 06:50:35;;;;;;;14.15;7.40;;;;;;;;;;5016563;28;20034;-82
2023/03/06 06:53:01;;;;;;;12.63;7.32;;;;;;;;;;5015294;28;20049;-81
2023/03/06 06:55:27;;;;;;;17.55;6.97;;;;;;;;;;5018901;28;20049;-81
2023/03/06 06:57:53;;;;;;;17.75;8.55;;;;;;;;;;5023527;28;20029;-81
2023/03/06 07:00:20;;;;;;;14.77;8.25;;;;;;;;;;5018586;28;20034;-81
2023/03/06 07:02:48;;;;;;;18.70;8.65;;;;;;;;;;5010607;28;20030;-82
2023/03/06 07:05:14;;;;;;;15.02;7.93;;;;;;;;;;5019087;28;20026;-82
2023/03/06 07:07:40;;;;;;;15.02;7.43;;;;;;;;;;5018463;28;20117;-82
2023/03/06 07:10:11;;;;;;;22.58;8.85;;;;;;;;;;5008832;28;20127;-82
2023/03/06 07:12:37;;;;;;;17.23;8.40;;;;;;;;;;5016350;28;20082;-82
2023/03/06 07:15:04;;;;;;;19.90;8.52;;;;;;;;;;5021612;28;20056;-82
2023/03/06 07:17:29;;;;;;;14.60;7.75;;;;;;;;;;5021767;28;20034;-82
2023/03/06 07:19:55;;;;;;;31.52;8.43;;;;;;;;;;5016890;28;20542;-82
2023/03/06 07:22:21;;;;;;;18.20;8.25;;;;;;;;;;5022035;28;20017;-81
2023/03/06 07:24:47;;;;;;;16.45;9.45;;;;;;;;;;5019579;28;20072;-81
2023/03/06 07:27:13;;;;;;;13.73;7.03;;;;;;;;;;5014658;28;20045;-82
2023/03/06 07:29:41;;;;;;;16.23;6.68;;;;;;;;;;5007394;28;20034;-81
2023/03/06 07:32:07;;;;;;;15.48;8.80;;;;;;;;;;5010576;28;20042;-82
2023/03/06 07:34:33;;;;;;;25.67;9.85;;;;;;;;;;5015797;28;20022;-82
2023/03/06 07:36:59;;;;;;;15.18;8.45;;;;;;;;;;5014585;28;20041;-82
2023/03/06 07:39:26;;;;;;;19.40;8.65;;;;;;;;;;5016234;28;20041;-82
2023/03/06 07:41:52;;;;;;;14.13;6.18;;;;;;;;;;5025480;28;20110;-82
2023/03/06 07:44:19;;;;;;;21.05;8.00;;;;;;;;;;5019898;28;20018;-82
2023/03/06 07:46:45;;;;;;;17.40;8.23;;;;;;;;;;5023267;28;20045;-82
2023/03/06 07:49:10;;;;;;;17.58;7.97;;;;;;;;;;5014674;28;20050;-83
2023/03/06 07:51:36;;;;;;;11.68;7.25;;;;;;;;;;5025116;28;20049;-82
2023/03/06 07:54:02;;;;;;;20.25;9.65;;;;;;;;;;5024852;28;20049;-82
2023/03/06 07:56:28;;;;;;;15.40;7.78;;;;;;;;;;5019583;28;20046;-81
2023/03/06 07:58:55;;;;;;;17.25;7.18;;;;;;;;;;5014347;28;20037;-82
2023/03/06 08:01:22;;;;;;;19.10;9.00;;;;;;;;;;5016406;28;20054;-83
2023/03/06 08:03:48;;;;;;;18.65;9.55;;;;;;;;;;5017243;28;20025;-82
2023/03/06 08:06:16;;;;;;;16.75;9.32;;;;;;;;;;5022555;28;20026;-83
2023/03/06 08:08:43;;;;;;;16.50;7.07;;;;;;;;;;5018777;28;20081;-83
2023/03/06 08:11:10;;;;;;;19.17;8.85;;;;;;;;;;5015323;28;20054;-83
2023/03/06 08:13:36;;;;;;;16.90;8.43;;;;;;;;;;5020216;28;20029;-83
2023/03/06 08:16:02;;;;;;;19.15;8.55;;;;;;;;;;5017199;28;20041;-83
2023/03/06 08:18:28;;;;;;;16.02;9.55;;;;;;;;;;5020982;28;20049;-83
2023/03/06 08:21:05;;;;;;;19.40;9.23;;;;;;;;;;5022272;28;20038;-83
2023/03/06 08:23:32;;;;;;;18.88;9.32;;;;;;;;;;5012528;28;20050;-83
2023/03/06 08:25:59;;;;;;;15.88;8.73;;;;;;;;;;5023818;28;20028;-83
2023/03/06 08:28:25;;;;;;;23.35;9.15;;;;;;;;;;5014405;28;20038;-82
2023/03/06 08:30:51;;;;;;;26.92;12.73;;;;;;;;;;5021728;28;20129;-82
2023/03/06 08:33:17;;;;;;;27.20;10.32;;;;;;;;;;5022962;28;20010;-83
2023/03/06 08:35:43;;;;;;;25.95;10.65;;;;;;;;;;5022405;28;20112;-83
2023/03/06 08:38:09;;;;;;;17.70;9.85;;;;;;;;;;5017424;28;20034;-83
2023/03/06 08:40:35;;;;;;;16.80;8.55;;;;;;;;;;5015363;28;20065;-82
2023/03/06 08:43:02;;;;;;;20.80;10.35;;;;;;;;;;5023659;28;20095;-83
2023/03/06 08:45:28;;;;;;;20.88;10.00;;;;;;;;;;5017238;28;20048;-83
2023/03/06 08:47:54;;;;;;;14.80;6.57;;;;;;;;;;5022296;28;20030;-83
2023/03/06 08:50:20;;;;;;;21.75;9.52;;;;;;;;;;5015668;28;20138;-83
2023/03/06 08:52:46;;;;;;;21.83;10.60;;;;;;;;;;5012574;28;20026;-83
2023/03/06 08:55:12;;;;;;;9.00;5.72;;;;;;;;;;5013067;28;20030;-82
2023/03/06 08:57:38;;;;;;;20.30;9.38;;;;;;;;;;5016489;28;20038;-82
2023/03/06 09:00:07;;;;;;;9.55;5.95;;;;;;;;;;5029293;28;20029;-82
2023/03/06 09:02:34;;;;;;;22.13;10.10;;;;;;;;;;5016826;28;20038;-82
2023/03/06 09:05:00;;;;;;;19.48;8.88;;;;;;;;;;5014599;28;20054;-82
2023/03/06 09:07:27;;;;;;;17.13;9.48;;;;;;;;;;5019668;28;20025;-82
2023/03/06 09:09:56;;;;;;;26.50;9.73;;;;;;;;;;5015920;28;20030;-82
2023/03/06 09:12:23;;;;;;;18.25;7.97;;;;;;;;;;5020140;28;20025;-82
2023/03/06 09:14:49;;;;;;;24.85;10.32;;;;;;;;;;5015578;28;20026;-83
2023/03/06 09:17:15;;;;;;;15.30;7.43;;;;;;;;;;5013509;28;20080;-82
2023/03/06 09:19:41;;;;;;;20.65;9.45;;;;;;;;;;5018118;28;20033;-81
2023/03/06 09:22:07;;;;;;;15.65;8.00;;;;;;;;;;5020747;28;20037;-82
2023/03/06 09:24:33;;;;;;;23.40;9.85;;;;;;;;;;5017756;28;20037;-82
2023/03/06 09:26:59;;;;;;;17.83;9.77;;;;;;;;;;5016606;28;20034;-82
2023/03/06 09:29:25;;;;;;;13.18;7.70;;;;;;;;;;5023191;28;20033;-81
2023/03/06 09:31:51;;;;;;;18.05;9.13;;;;;;;;;;5022846;28;20124;-81
2023/03/06 09:34:17;;;;;;;21.45;10.75;;;;;;;;;;5018907;28;20009;-81
2023/03/06 09:36:43;;;;;;;24.33;10.18;;;;;;;;;;5023548;28;20034;-82
2023/03/06 09:39:09;;;;;;;19.40;10.27;;;;;;;;;;5017064;28;20034;-81
2023/03/06 09:41:36;;;;;;;24.88;10.48;;;;;;;;;;5016787;28;20037;-81
2023/03/06 09:44:13;;;;;;;11.38;8.40;;;;;;;;;;5013578;28;20069;-81
2023/03/06 09:46:40;;;;;;;28.60;10.57;;;;;;;;;;5017383;28;20425;-81
2023/03/06 09:49:14;;;;;;;25.25;11.27;;;;;;;;;;5014903;28;20054;-82
2023/03/06 09:52:03;;;;;;;20.52;9.93;;;;;;;;;;5019762;28;20065;-81
2023/03/06 09:54:37;;;;;;;23.25;11.35;;;;;;;;;;5017036;28;20039;-81
2023/03/06 09:57:03;;;;;;;26.27;10.98;;;;;;;;;;5012961;28;20030;-81
2023/03/06 09:59:30;;;;;;;13.63;6.53;;;;;;;;;;5018723;28;20042;-81
2023/03/06 10:01:59;;;;;;;31.20;12.13;;;;;;;;;;5014797;28;20033;-81
2023/03/06 10:04:35;;;;;;;23.63;9.73;;;;;;;;;;5014893;28;20065;-81
2023/03/06 10:07:15;;;;;;;22.13;9.85;;;;;;;;;;5016785;28;20074;-81
2023/03/06 10:09:44;;;;;;;26.23;11.18;;;;;;;;;;5014517;28;20030;-81
2023/03/06 10:12:16;;;;;;;22.63;10.40;;;;;;;;;;5017490;28;20090;-81
2023/03/06 10:15:08;;;;;;;18.55;8.95;;;;;;;;;;5014398;28;20034;-81
2023/03/06 10:17:37;;;;;;;16.58;7.53;;;;;;;;;;5021871;28;20065;-81
2023/03/06 10:20:09;;;;;;;20.20;8.68;;;;;;;;;;5022728;28;20005;-81
2023/03/06 10:22:42;;;;;;;17.80;8.38;;;;;;;;;;5016410;28;20006;-81
2023/03/06 10:25:14;;;;;;;7.78;4.50;;;;;;;;;;5018594;28;20029;-82
2023/03/06 10:27:44;;;;;;;19.25;8.30;;;;;;;;;;5016083;28;20026;-81
2023/03/06 10:30:19;;;;;;;9.95;5.00;;;;;;;;;;5017408;28;20026;-81
2023/03/06 10:32:45;;;;;;;15.00;6.80;;;;;;;;;;5018914;28;20029;-81
2023/03/06 10:35:14;;;;;;;16.35;7.38;;;;;;;;;;5017847;28;20053;-81
2023/03/06 10:37:40;;;;;;;9.23;4.60;;;;;;;;;;5008262;28;20038;-81
2023/03/06 10:40:15;;;;;;;19.70;9.02;;;;;;;;;;5011475;28;20036;-80
2023/03/06 10:42:41;;;;;;;10.23;7.35;;;;;;;;;;5021071;28;20060;-80
2023/03/06 10:45:09;;;;;;;11.43;6.25;;;;;;;;;;5022350;28;20026;-80
2023/03/06 10:47:36;;;;;;;17.00;7.85;;;;;;;;;;5019468;28;20030;-80
2023/03/06 10:50:03;;;;;;;6.78;3.65;;;;;;;;;;5013563;28;20038;-80
2023/03/06 10:52:33;;;;;;;12.48;6.93;;;;;;;;;;5013971;28;20061;-80
2023/03/06 10:55:17;;;;;;;12.77;7.47;;;;;;;;;;5016289;28;20053;-79
2023/03/06 10:57:43;;;;;;;13.07;6.10;;;;;;;;;;5023590;28;20073;-79
2023/03/06 11:00:26;;;;;;;8.25;5.53;;;;;;;;;;5024764;28;20030;-81
2023/03/06 11:03:31;;;;;;;10.30;5.45;;;;;;;;;;5021084;28;20101;-81
2023/03/06 11:06:11;;;;;;;8.10;6.05;;;;;;;;;;5026189;28;20041;-81
2023/03/06 11:08:38;;;;;;;13.05;5.15;;;;;;;;;;5024818;28;20030;-81
2023/03/06 11:11:04;;;;;;;13.48;7.30;;;;;;;;;;5013515;28;21555;-81
2023/03/06 11:13:31;;;;;;;16.75;7.68;;;;;;;;;;5026228;28;20028;-81
2023/03/06 11:16:00;;;;;;;12.05;4.82;;;;;;;;;;5025390;28;20029;-81
2023/03/06 11:18:29;;;;;;;19.88;8.40;;;;;;;;;;5020339;28;20044;-82
2023/03/06 11:20:55;;;;;;;11.45;8.07;;;;;;;;;;5023787;28;20486;-81
2023/03/06 11:23:42;;;;;;;10.63;7.45;;;;;;;;;;5027095;28;20025;-81
2023/03/06 11:26:18;;;;;;;4.63;3.85;;;;;;;;;;5024946;28;20014;-81
2023/03/06 11:29:05;;;;;;;13.38;8.18;;;;;;;;;;5028217;28;20018;-81
2023/03/06 11:31:32;;;;;;;13.70;6.85;;;;;;;;;;5023410;28;20457;-81
2023/03/06 11:34:07;;;;;;;18.73;8.02;;;;;;;;;;5017846;28;20028;-81
2023/03/06 11:36:48;;;;;;;9.27;4.57;;;;;;;;;;5026119;28;20029;-81
2023/03/06 11:39:33;;;;;;;19.30;7.47;;;;;;;;;;5017538;28;20030;-81
2023/03/06 11:42:03;;;;;;;16.35;8.23;;;;;;;;;;5025103;28;20034;-81
2023/03/06 11:44:37;;;;;;;13.75;6.07;;;;;;;;;;5025562;28;20037;-81
2023/03/06 11:47:15;;;;;;;11.43;6.22;;;;;;;;;;5022957;28;20093;-81
2023/03/06 11:50:08;;;;;;;13.05;7.88;;;;;;;;;;5025161;28;20097;-82
2023/03/06 11:52:45;;;;;;;16.02;7.05;;;;;;;;;;5019818;28;20034;-81
2023/03/06 11:55:16;;;;;;;18.55;9.15;;;;;;;;;;5016007;28;20038;-81
2023/03/06 11:58:01;;;;;;;17.88;7.53;;;;;;;;;;5026510;28;20038;-81
2023/03/06 12:00:47;;;;;;;19.77;7.85;;;;;;;;;;5021746;28;20026;-82
2023/03/06 12:03:33;;;;;;;15.27;7.20;;;;;;;;;;5025128;28;20120;-82
2023/03/06 12:06:05;;;;;;;12.85;6.45;;;;;;;;;;5022100;28;20101;-82
2023/03/06 12:08:43;;;;;;;16.92;7.60;;;;;;;;;;5020093;28;20058;-82
2023/03/06 12:11:30;;;;;;;10.57;7.32;;;;;;;;;;5020388;28;20040;-82
2023/03/06 12:14:04;;;;;;;10.15;5.88;;;;;;;;;;5021005;28;20077;-82
2023/03/06 12:17:09;;;;;;;11.68;6.55;;;;;;;;;;5020016;28;20050;-82
2023/03/06 12:19:45;;;;;;;13.40;6.97;;;;;;;;;;5018250;28;20034;-82
2023/03/06 12:22:50;;;;;;;12.75;6.55;;;;;;;;;;5018727;28;20034;-82
2023/03/06 12:25:28;;;;;;;10.60;6.15;;;;;;;;;;4965348;28;20039;-82
2023/03/06 12:28:21;;;;;;;13.95;6.32;;;;;;;;;;4964287;29;20027;-82
2023/03/06 12:31:06;;;;;;;19.13;7.78;;;;;;;;;;4999895;28;20046;-82
2023/03/06 12:33:50;;;;;;;14.68;7.80;;;;;;;;;;5016527;28;20057;-82
2023/03/06 12:36:28;;;;;;;6.95;5.07;;;;;;;;;;5019102;28;20034;-81
2023/03/06 12:38:57;;;;;;;8.32;5.40;;;;;;;;;;5019130;28;20474;-82
2023/03/06 12:41:35;;;;;;;7.80;4.93;;;;;;;;;;5017043;28;20041;-82
2023/03/06 12:44:11;;;;;;;12.07;6.25;;;;;;;;;;5018985;28;20506;-82
2023/03/06 12:46:51;;;;;;;11.32;4.85;;;;;;;;;;5020515;28;20097;-82
2023/03/06 12:49:27;;;;;;;13.00;7.15;;;;;;;;;;5018574;28;20049;-82
2023/03/06 12:51:54;;;;;;;12.63;5.38;;;;;;;;;;5021748;28;20044;-82
2023/03/06 12:54:30;;;;;;;12.07;6.57;;;;;;;;;;5022656;28;20030;-83
2023/03/06 12:56:57;;;;;;;10.73;6.78;;;;;;;;;;5024633;28;20042;-83
2023/03/06 12:59:36;;;;;;;16.25;6.20;;;;;;;;;;5024830;28;20033;-84
2023/03/06 13:02:21;;;;;;;5.03;3.53;;;;;;;;;;5021733;28;21274;-83
2023/03/06 13:04:59;;;;;;;8.60;4.55;;;;;;;;;;5014780;28;20086;-83
2023/03/06 13:07:26;;;;;;;8.77;5.20;;;;;;;;;;5018390;28;20037;-83
2023/03/06 13:10:02;;;;;;;9.65;6.20;;;;;;;;;;5020444;28;20038;-82
2023/03/06 13:12:37;;;;;;;12.18;5.22;;;;;;;;;;5022741;28;20037;-83
2023/03/06 13:15:27;;;;;;;5.07;3.45;;;;;;;;;;5018447;28;20565;-82
2023/03/06 13:17:53;;;;;;;10.45;5.38;;;;;;;;;;5007849;28;20038;-82
2023/03/06 13:20:26;;;;;;;11.35;6.63;;;;;;;;;;5021326;28;20096;-82
2023/03/06 13:22:52;;;;;;;9.07;4.68;;;;;;;;;;5020711;28;20105;-83
2023/03/06 13:25:18;;;;;;;10.55;5.53;;;;;;;;;;5018218;28;20061;-83
2023/03/06 13:27:59;;;;;;;6.25;4.60;;;;;;;;;;5020316;28;20049;-82
2023/03/06 13:30:27;;;;;;;7.00;5.30;;;;;;;;;;5017796;28;20156;-82
2023/03/06 13:32:53;;;;;;;11.65;5.43;;;;;;;;;;5018739;28;20029;-82
2023/03/06 13:35:31;;;;;;;6.55;4.32;;;;;;;;;;5020527;28;20045;-82
2023/03/06 13:37:58;;;;;;;10.85;4.15;;;;;;;;;;5015698;28;20166;-81
2023/03/06 13:40:31;;;;;;;6.10;3.90;;;;;;;;;;5018279;28;20034;-82
2023/03/06 13:43:06;;;;;;;16.20;6.07;;;;;;;;;;5015800;28;20035;-82
2023/03/06 13:45:38;;;;;;;9.77;6.00;;;;;;;;;;5016906;28;20061;-82
2023/03/06 13:48:04;;;;;;;7.63;4.35;;;;;;;;;;5020556;28;20054;-82
2023/03/06 13:50:30;;;;;;;9.45;4.82;;;;;;;;;;5016672;28;20037;-82
2023/03/06 13:53:15;;;;;;;11.55;5.57;;;;;;;;;;5018609;28;20040;-82
2023/03/06 13:55:41;;;;;;;8.48;5.75;;;;;;;;;;5020520;28;20124;-82
2023/03/06 13:58:07;;;;;;;14.25;7.28;;;;;;;;;;5018882;28;20054;-82
2023/03/06 14:00:49;;;;;;;11.07;5.55;;;;;;;;;;5020471;28;20037;-82
2023/03/06 14:03:14;;;;;;;9.00;4.13;;;;;;;;;;5021328;28;20033;-83
2023/03/06 14:05:48;;;;;;;11.48;6.13;;;;;;;;;;5016751;28;20064;-82
2023/03/06 14:08:15;;;;;;;11.48;6.25;;;;;;;;;;5006000;28;20966;-82
2023/03/06 14:10:43;;;;;;;9.90;5.30;;;;;;;;;;5015440;28;20064;-83
2023/03/06 14:13:16;;;;;;;9.07;5.43;;;;;;;;;;5016067;28;20038;-83
2023/03/06 14:15:50;;;;;;;11.95;5.78;;;;;;;;;;5022573;28;20072;-82
2023/03/06 14:18:23;;;;;;;14.93;5.68;;;;;;;;;;5022771;28;20061;-82
2023/03/06 14:20:53;;;;;;;6.78;3.75;;;;;;;;;;5024632;28;20030;-83
2023/03/06 14:23:27;;;;;;;9.52;6.32;;;;;;;;;;5004297;28;20037;-82
2023/03/06 14:25:56;;;;;;;7.20;4.30;;;;;;;;;;5006363;28;20115;-83
2023/03/06 14:28:23;;;;;;;9.18;4.60;;;;;;;;;;5007385;28;20030;-83
2023/03/06 14:30:50;;;;;;;5.72;3.47;;;;;;;;;;5006142;28;20120;-83
2023/03/06 14:33:34;;;;;;;6.55;4.72;;;;;;;;;;5005303;28;20037;-83
2023/03/06 14:36:04;;;;;;;10.43;4.93;;;;;;;;;;5004627;28;20034;-83
2023/03/06 14:38:41;;;;;;;6.00;4.97;;;;;;;;;;5004711;28;20054;-82
2023/03/06 14:41:09;;;;;;;8.07;4.65;;;;;;;;;;5017239;28;20025;-83